Bom Principio, Brazil
Current Conditions -  °F | °C
As of 12:00 AM on Sunday 21 Dec 2014 (Local Time) from SBPA Reporting Station
Thunderstorm Thunderstorm  
Wind Chill: 72°   Ceiling: 800
Heat Index: 72°   Visibility: 4mi
Dew Point: 70°   Wind: 9mph
Humidity: 94%   Direction: 40°NE
Pressure: NA   Gusts: NA
Location:  29.49°S, 51.35°W
Report Text: SBPA 210200Z 04008KT 6000 -TSRA BKN008 FEW040CB OVC100 22/21 Q1008 RETS
Loading
Personal Weather Stations






























Interactive Weather Map New forecast layout! Learn more

10-Day Weather Forecast

Advertisements
Track Severe Weather on mobile